createdAt,value
2022-08-26T00:02:01.519Z,24.70
2022-08-26T00:04:29.954Z,25.80
2022-08-26T00:06:59.682Z,24.95
2022-08-26T00:09:27.998Z,24.60
2022-08-26T00:11:56.668Z,19.35
2022-08-26T00:14:30.789Z,19.10
2022-08-26T00:17:00.312Z,14.00
2022-08-26T00:19:28.738Z,17.55
2022-08-26T00:21:57.097Z,17.48
2022-08-26T00:24:26.801Z,17.17
2022-08-26T00:26:55.096Z,16.63
2022-08-26T00:29:23.395Z,17.45
2022-08-26T00:31:51.730Z,15.35
2022-08-26T00:34:20.059Z,15.52
2022-08-26T00:36:49.205Z,15.32
2022-08-26T00:39:21.025Z,16.00
2022-08-26T00:41:50.703Z,16.58
2022-08-26T00:44:19.515Z,16.65
2022-08-26T00:46:51.691Z,12.88
2022-08-26T00:49:25.815Z,14.75
2022-08-26T00:51:55.955Z,12.43
2022-08-26T00:54:27.068Z,12.45
2022-08-26T00:56:59.920Z,14.10
2022-08-26T00:59:29.189Z,12.07
2022-08-26T01:02:02.817Z,12.23
2022-08-26T01:04:32.945Z,12.70
2022-08-26T01:07:01.437Z,13.32
2022-08-26T01:09:29.850Z,11.27
2022-08-26T01:12:02.198Z,16.60
2022-08-26T01:14:33.956Z,16.65
2022-08-26T01:17:05.102Z,15.10
2022-08-26T01:19:38.419Z,12.20
2022-08-26T01:22:11.625Z,14.82
2022-08-26T01:24:43.310Z,16.77
2022-08-26T01:27:14.414Z,15.60
2022-08-26T01:29:45.257Z,17.05
2022-08-26T01:32:17.695Z,12.95
2022-08-26T01:34:48.210Z,16.70
2022-08-26T01:37:17.945Z,16.30
2022-08-26T01:39:50.914Z,15.90
2022-08-26T01:42:22.426Z,17.60
2022-08-26T01:44:54.056Z,13.88
2022-08-26T01:47:23.461Z,11.95
2022-08-26T01:49:54.215Z,13.55
2022-08-26T01:52:24.567Z,13.55
2022-08-26T01:54:58.925Z,15.73
2022-08-26T01:57:27.689Z,23.13
2022-08-26T01:59:57.112Z,22.55
2022-08-26T02:02:25.376Z,22.35
2022-08-26T02:04:56.577Z,26.00
2022-08-26T02:07:26.828Z,24.52
2022-08-26T02:09:56.936Z,26.17
2022-08-26T02:12:26.709Z,25.20
2022-08-26T02:17:30.869Z,22.02
2022-08-26T02:19:59.158Z,23.80
2022-08-26T02:22:27.458Z,24.02
2022-08-26T02:24:59.229Z,27.98
2022-08-26T02:27:32.236Z,24.08
2022-08-26T02:30:06.135Z,24.30
2022-08-26T02:32:34.719Z,21.92
2022-08-26T02:35:03.598Z,25.10
2022-08-26T02:37:33.227Z,28.60
2022-08-26T02:42:32.723Z,27.67
2022-08-26T02:45:01.083Z,25.48
2022-08-26T02:47:29.430Z,24.30
2022-08-26T02:50:01.039Z,23.73
2022-08-26T02:52:29.464Z,30.05
2022-08-26T02:54:57.756Z,26.13
2022-08-26T02:57:27.437Z,28.23
2022-08-26T02:59:55.832Z,29.80
2022-08-26T03:02:24.288Z,32.55
2022-08-26T03:04:57.958Z,25.67
2022-08-26T03:07:30.633Z,33.35
2022-08-26T03:09:59.228Z,31.40
2022-08-26T03:12:28.982Z,30.90
2022-08-26T03:14:58.594Z,30.02
2022-08-26T03:17:27.071Z,31.88
2022-08-26T03:19:57.279Z,28.83
2022-08-26T03:22:27.127Z,31.60
2022-08-26T03:24:55.823Z,25.95
2022-08-26T03:27:24.231Z,23.10
2022-08-26T03:30:11.802Z,30.40
2022-08-26T03:32:41.532Z,38.33
2022-08-26T03:35:10.854Z,37.50
2022-08-26T03:37:39.603Z,30.10
2022-08-26T03:40:10.453Z,29.58
2022-08-26T03:42:39.461Z,27.58
2022-08-26T03:45:11.285Z,28.10
2022-08-26T03:47:40.134Z,36.40
2022-08-26T03:50:10.819Z,26.77
2022-08-26T03:52:43.547Z,26.83
2022-08-26T03:55:12.464Z,26.73
2022-08-26T03:57:40.916Z,22.40
2022-08-26T04:00:18.459Z,22.05
2022-08-26T04:02:49.328Z,23.30
2022-08-26T04:05:19.418Z,27.33
2022-08-26T04:07:47.878Z,22.70
2022-08-26T04:10:20.240Z,22.73
2022-08-26T04:12:48.796Z,27.98
2022-08-26T04:15:18.954Z,28.35
2022-08-26T04:17:47.359Z,24.40
2022-08-26T04:20:18.137Z,25.88
2022-08-26T04:22:46.984Z,98.15
2022-08-26T04:25:15.357Z,35.53
2022-08-26T04:27:44.306Z,20.90
2022-08-26T04:30:13.785Z,20.17
2022-08-26T04:32:43.666Z,25.40
2022-08-26T04:35:12.192Z,16.52
2022-08-26T04:37:43.137Z,23.88
2022-08-26T04:40:12.269Z,23.67
2022-08-26T04:42:40.686Z,17.70
2022-08-26T04:45:10.021Z,21.40
2022-08-26T04:47:38.991Z,22.10
2022-08-26T04:50:10.923Z,25.65
2022-08-26T04:52:39.428Z,24.50
2022-08-26T04:55:08.757Z,18.55
2022-08-26T04:57:37.121Z,20.55
2022-08-26T05:00:07.202Z,21.63
2022-08-26T05:02:36.267Z,24.15
2022-08-26T05:05:07.155Z,16.58
2022-08-26T05:07:37.244Z,16.65
2022-08-26T05:10:08.828Z,15.27
2022-08-26T05:12:37.258Z,13.60
2022-08-26T05:15:07.519Z,18.75
2022-08-26T05:17:35.738Z,17.55
2022-08-26T05:20:05.235Z,16.80
2022-08-26T05:22:36.153Z,17.70
2022-08-26T05:25:04.853Z,14.07
2022-08-26T05:27:33.190Z,14.63
2022-08-26T05:30:01.759Z,15.98
2022-08-26T05:32:30.556Z,15.68
2022-08-26T05:34:59.556Z,17.05
2022-08-26T05:37:28.921Z,15.77
2022-08-26T05:39:59.202Z,18.45
2022-08-26T05:44:56.787Z,17.65
2022-08-26T05:47:25.235Z,16.25
2022-08-26T05:49:55.344Z,19.35
2022-08-26T05:52:24.682Z,18.65
2022-08-26T05:54:54.413Z,19.83
2022-08-26T05:57:24.123Z,24.75
2022-08-26T05:59:52.706Z,29.75
2022-08-26T06:02:21.153Z,25.83
2022-08-26T06:04:49.511Z,24.75
2022-08-26T06:07:18.496Z,30.70
2022-08-26T06:09:46.921Z,28.80
2022-08-26T06:12:15.796Z,34.20
2022-08-26T06:14:49.040Z,29.52
2022-08-26T06:17:18.084Z,30.45
2022-08-26T06:19:46.431Z,30.63
2022-08-26T06:22:28.640Z,30.75
2022-08-26T06:25:14.211Z,30.52
2022-08-26T06:27:42.513Z,31.92
2022-08-26T06:30:13.353Z,29.05
2022-08-26T06:32:41.818Z,35.25
2022-08-26T06:35:12.157Z,34.72
2022-08-26T06:37:41.141Z,35.33
2022-08-26T06:40:11.533Z,27.90
2022-08-26T06:42:40.293Z,31.27
2022-08-26T06:45:09.417Z,30.17
2022-08-26T06:47:40.979Z,29.75
2022-08-26T06:50:09.822Z,32.10
2022-08-26T06:52:38.632Z,27.87
2022-08-26T06:55:07.780Z,26.88
2022-08-26T06:57:37.749Z,31.23
2022-08-26T07:00:10.924Z,26.98
2022-08-26T07:02:40.706Z,30.48
2022-08-26T07:05:14.935Z,27.95
2022-08-26T07:07:43.251Z,29.25
2022-08-26T07:10:11.910Z,26.83
2022-08-26T07:12:40.201Z,24.85
2022-08-26T07:15:10.648Z,22.75
2022-08-26T07:17:40.767Z,25.60
2022-08-26T07:20:11.472Z,21.25
2022-08-26T07:22:40.324Z,28.63
2022-08-26T07:25:11.508Z,21.33
2022-08-26T07:27:40.210Z,22.75
2022-08-26T07:30:09.954Z,26.20
2022-08-26T07:32:44.524Z,24.77
2022-08-26T07:35:13.036Z,26.33
2022-08-26T07:37:41.590Z,21.38
2022-08-26T07:40:10.593Z,22.02
2022-08-26T07:45:09.083Z,22.25
2022-08-26T07:47:37.384Z,19.90
2022-08-26T07:50:08.010Z,23.40
2022-08-26T07:52:37.650Z,23.42
2022-08-26T07:57:35.667Z,20.08
2022-08-26T08:00:11.174Z,20.30
2022-08-26T08:02:39.563Z,22.17
2022-08-26T08:05:09.672Z,20.58
2022-08-26T08:07:45.226Z,18.92
2022-08-26T08:10:15.683Z,20.52
2022-08-26T08:15:13.777Z,22.73
2022-08-26T08:17:42.872Z,21.10
2022-08-26T08:20:14.309Z,19.60
2022-08-26T08:22:43.285Z,20.00
2022-08-26T08:25:11.750Z,19.90
2022-08-26T08:27:40.958Z,19.13
2022-08-26T08:30:13.768Z,21.50
2022-08-26T08:32:43.617Z,20.13
2022-08-26T08:35:15.788Z,19.27
2022-08-26T08:37:44.981Z,18.88
2022-08-26T08:40:18.295Z,19.60
2022-08-26T08:42:50.259Z,21.35
2022-08-26T08:45:22.712Z,18.15
2022-08-26T08:47:54.642Z,21.05
2022-08-26T08:50:27.942Z,17.73
2022-08-26T08:53:08.877Z,18.98
2022-08-26T08:55:50.133Z,17.35
2022-08-26T08:58:21.626Z,18.40
2022-08-26T09:00:55.082Z,18.50
2022-08-26T09:03:35.005Z,17.98
2022-08-26T09:06:05.196Z,18.80
2022-08-26T09:08:35.768Z,19.15
2022-08-26T09:11:05.006Z,19.35
2022-08-26T09:13:35.409Z,17.20
2022-08-26T09:16:08.368Z,21.38
2022-08-26T09:19:08.156Z,17.08
2022-08-26T09:21:38.539Z,15.82
2022-08-26T09:24:08.398Z,17.17
2022-08-26T09:26:45.202Z,18.85
2022-08-26T09:32:16.142Z,19.40
2022-08-26T09:34:55.292Z,18.63
2022-08-26T09:37:36.521Z,17.80
2022-08-26T09:40:27.688Z,17.30
2022-08-26T09:43:22.828Z,14.95
2022-08-26T09:45:58.489Z,17.40
2022-08-26T09:48:30.541Z,14.02
2022-08-26T09:51:00.831Z,15.80
2022-08-26T09:53:32.823Z,17.38
2022-08-26T09:56:17.709Z,16.40
2022-08-26T09:58:48.230Z,20.35
2022-08-26T10:01:20.801Z,17.55
2022-08-26T10:03:49.229Z,15.60
2022-08-26T10:06:26.717Z,14.90
2022-08-26T10:08:59.186Z,15.00
2022-08-26T10:11:33.644Z,15.98
2022-08-26T10:14:05.865Z,15.85
2022-08-26T10:16:38.609Z,17.08
2022-08-26T10:19:10.290Z,18.83
2022-08-26T10:21:53.928Z,20.27
2022-08-26T10:24:27.647Z,16.35
2022-08-26T10:27:02.010Z,20.90
2022-08-26T10:29:34.397Z,18.42
2022-08-26T10:32:07.207Z,20.35
2022-08-26T10:34:35.580Z,15.57
2022-08-26T10:37:13.450Z,15.80
2022-08-26T10:39:55.258Z,18.30
2022-08-26T10:42:28.935Z,18.45
2022-08-26T10:45:00.279Z,18.73
2022-08-26T10:47:34.955Z,17.67
2022-08-26T10:50:04.399Z,15.50
2022-08-26T10:52:41.161Z,16.35
2022-08-26T10:55:19.351Z,16.95
2022-08-26T10:57:53.009Z,17.63
2022-08-26T11:00:43.895Z,14.75
2022-08-26T11:06:22.271Z,15.95
2022-08-26T11:08:52.707Z,22.50
2022-08-26T11:11:49.553Z,15.90
2022-08-26T11:14:42.093Z,14.75
2022-08-26T11:17:55.378Z,14.55
2022-08-26T11:20:34.908Z,15.63
2022-08-26T11:23:41.697Z,20.38
2022-08-26T11:26:30.006Z,13.30
2022-08-26T11:29:13.099Z,14.10
2022-08-26T11:31:56.202Z,19.73
2022-08-26T11:34:52.044Z,16.17
2022-08-26T11:39:57.037Z,13.98
2022-08-26T11:42:34.314Z,11.05
2022-08-26T11:45:05.778Z,12.27
2022-08-26T11:47:34.183Z,14.07
2022-08-26T11:50:10.590Z,10.70
2022-08-26T11:52:39.207Z,13.23
2022-08-26T11:55:11.071Z,13.70
2022-08-26T11:57:44.823Z,15.68
2022-08-26T12:00:21.173Z,11.45
2022-08-26T12:02:52.458Z,12.27
2022-08-26T12:05:25.228Z,14.05
2022-08-26T12:07:55.294Z,14.63
2022-08-26T12:10:30.023Z,11.18
2022-08-26T12:13:00.149Z,10.30
2022-08-26T12:15:31.991Z,14.65
2022-08-26T12:18:18.331Z,12.18
2022-08-26T12:20:57.664Z,14.30
2022-08-26T12:23:29.336Z,12.47
2022-08-26T12:26:05.679Z,12.50
2022-08-26T12:28:34.608Z,14.50
2022-08-26T12:31:07.409Z,12.30
2022-08-26T12:33:36.602Z,14.48
2022-08-26T12:36:05.652Z,16.75
2022-08-26T12:38:36.854Z,12.53
2022-08-26T12:41:05.345Z,11.23
2022-08-26T12:43:44.635Z,13.27
2022-08-26T12:46:18.115Z,14.95
2022-08-26T12:48:49.880Z,11.50
2022-08-26T12:51:24.408Z,13.57
2022-08-26T12:53:53.081Z,13.23
2022-08-26T12:56:29.417Z,13.05
2022-08-26T12:59:07.516Z,12.70
2022-08-26T13:01:44.641Z,11.43
2022-08-26T13:04:41.824Z,14.75
2022-08-26T13:07:30.861Z,14.73
2022-08-26T13:10:00.857Z,13.17
2022-08-26T13:12:31.477Z,13.18
2022-08-26T13:15:00.798Z,11.23
2022-08-26T13:17:31.185Z,15.65
2022-08-26T13:20:04.033Z,14.63
2022-08-26T13:22:33.001Z,11.18
2022-08-26T13:25:01.488Z,13.10
2022-08-26T13:27:29.784Z,10.00
2022-08-26T13:29:59.099Z,12.55
2022-08-26T13:32:27.919Z,18.80
2022-08-26T13:34:58.158Z,14.43
2022-08-26T13:37:35.078Z,11.60
2022-08-26T13:40:05.879Z,11.50
2022-08-26T13:42:34.377Z,12.25
2022-08-26T13:45:03.177Z,10.60
2022-08-26T13:47:31.570Z,12.23
2022-08-26T13:50:01.279Z,10.77
2022-08-26T13:52:30.573Z,11.25
2022-08-26T13:57:29.990Z,11.53
2022-08-26T13:59:59.971Z,12.43
2022-08-26T14:04:56.692Z,12.73
2022-08-26T14:07:26.580Z,12.35
2022-08-26T14:12:23.075Z,14.50
2022-08-26T14:14:51.348Z,12.70
2022-08-26T14:17:21.755Z,13.95
2022-08-26T14:19:51.328Z,12.57
2022-08-26T14:22:21.731Z,14.75
2022-08-26T14:24:51.494Z,16.80
2022-08-26T14:27:20.083Z,17.02
2022-08-26T14:29:48.385Z,13.48
2022-08-26T14:32:22.871Z,15.63
2022-08-26T14:34:51.372Z,15.32
2022-08-26T14:37:19.693Z,16.77
2022-08-26T14:39:48.135Z,13.93
2022-08-26T14:42:21.222Z,20.23
2022-08-26T14:44:53.586Z,14.05
2022-08-26T14:47:21.916Z,16.35
2022-08-26T14:49:50.370Z,14.48
2022-08-26T14:52:18.995Z,16.63
2022-08-26T14:54:46.357Z,14.88
2022-08-26T14:57:15.274Z,12.80
2022-08-26T14:59:49.951Z,13.45
2022-08-26T15:02:32.412Z,13.55
2022-08-26T15:05:02.562Z,15.68
2022-08-26T15:07:31.041Z,15.85
2022-08-26T15:09:59.325Z,16.25
2022-08-26T15:12:27.786Z,15.57
2022-08-26T15:14:57.459Z,15.45
2022-08-26T15:17:26.197Z,16.13
2022-08-26T15:19:54.503Z,14.23
2022-08-26T15:22:22.881Z,16.10
2022-08-26T15:24:53.631Z,19.48
2022-08-26T15:27:22.306Z,16.15
2022-08-26T15:29:50.655Z,14.57
2022-08-26T15:32:20.818Z,18.27
2022-08-26T15:34:49.956Z,15.75
2022-08-26T15:37:18.294Z,14.83
2022-08-26T15:39:46.647Z,18.17
2022-08-26T15:42:14.996Z,17.23
2022-08-26T15:44:44.608Z,13.48
2022-08-26T15:47:12.948Z,18.05
2022-08-26T15:49:42.627Z,17.73
2022-08-26T15:52:11.012Z,16.38
2022-08-26T15:54:39.577Z,20.08
2022-08-26T15:59:40.788Z,16.85
2022-08-26T16:02:09.532Z,16.88
2022-08-26T16:04:38.016Z,13.85
2022-08-26T16:07:07.744Z,14.52
2022-08-26T16:09:36.039Z,18.90
2022-08-26T16:12:05.292Z,16.90
2022-08-26T16:14:33.677Z,12.95
2022-08-26T16:17:02.568Z,17.35
2022-08-26T16:19:30.912Z,15.82
2022-08-26T16:21:59.266Z,15.25
2022-08-26T16:24:30.614Z,13.80
2022-08-26T16:26:59.217Z,18.60
2022-08-26T16:29:27.949Z,12.68
2022-08-26T16:31:56.263Z,20.27
2022-08-26T16:34:24.605Z,15.30
2022-08-26T16:36:53.014Z,10.93
2022-08-26T16:39:21.417Z,14.20
2022-08-26T16:41:51.098Z,20.42
2022-08-26T16:44:19.454Z,17.05
2022-08-26T16:46:48.009Z,20.90
2022-08-26T16:49:16.422Z,19.75
2022-08-26T16:51:44.749Z,14.63
2022-08-26T16:54:13.110Z,15.98
2022-08-26T16:56:41.407Z,15.48
2022-08-26T16:59:12.103Z,19.30
2022-08-26T17:01:40.549Z,19.77
2022-08-26T17:04:09.282Z,16.05
2022-08-26T17:06:38.279Z,16.88
2022-08-26T17:09:06.870Z,18.33
2022-08-26T17:11:35.301Z,13.20
2022-08-26T17:14:03.978Z,17.48
2022-08-26T17:16:33.716Z,14.32
2022-08-26T17:19:02.669Z,17.88
2022-08-26T17:21:30.945Z,16.88
2022-08-26T17:23:59.288Z,14.35
2022-08-26T17:26:28.094Z,14.07
2022-08-26T17:28:56.667Z,16.48
2022-08-26T17:31:25.296Z,13.80
2022-08-26T17:33:55.546Z,18.30
2022-08-26T17:38:57.881Z,19.17
2022-08-26T17:41:27.095Z,14.02
2022-08-26T17:43:55.690Z,24.42
2022-08-26T17:46:24.515Z,18.77
2022-08-26T17:48:53.163Z,16.42
2022-08-26T17:51:23.555Z,19.98
2022-08-26T17:53:52.417Z,18.30
2022-08-26T17:56:23.945Z,16.10
2022-08-26T17:58:52.708Z,15.63
2022-08-26T18:01:21.745Z,19.83
2022-08-26T18:03:50.401Z,15.07
2022-08-26T18:06:19.403Z,17.13
2022-08-26T18:08:49.339Z,18.05
2022-08-26T18:11:19.309Z,18.23
2022-08-26T18:13:47.827Z,15.32
2022-08-26T18:16:17.609Z,19.38
2022-08-26T18:18:46.526Z,19.55
2022-08-26T18:21:16.831Z,15.52
2022-08-26T18:26:19.115Z,18.38
2022-08-26T18:28:47.455Z,16.80
2022-08-26T18:31:16.434Z,14.40
2022-08-26T18:33:45.348Z,18.77
2022-08-26T18:36:18.477Z,15.63
2022-08-26T18:38:47.369Z,15.73
2022-08-26T18:41:22.107Z,14.32
2022-08-26T18:43:51.411Z,15.60
2022-08-26T18:46:20.771Z,17.45
2022-08-26T18:48:51.176Z,17.03
2022-08-26T18:51:21.114Z,18.30
2022-08-26T18:53:49.535Z,16.42
2022-08-26T18:56:18.696Z,13.88
2022-08-26T18:58:49.013Z,17.43
2022-08-26T19:01:18.474Z,17.58
2022-08-26T19:03:47.284Z,15.30
2022-08-26T19:06:16.669Z,17.05
2022-08-26T19:08:46.070Z,14.10
2022-08-26T19:11:30.175Z,14.35
2022-08-26T19:14:02.073Z,20.08
2022-08-26T19:16:30.831Z,21.10
2022-08-26T19:19:00.619Z,16.35
2022-08-26T19:21:29.922Z,17.05
2022-08-26T19:23:58.896Z,16.65
2022-08-26T19:26:28.019Z,16.38
2022-08-26T19:28:56.689Z,18.00
2022-08-26T19:31:26.615Z,17.23
2022-08-26T19:33:56.686Z,15.80
2022-08-26T19:36:25.854Z,18.40
2022-08-26T19:38:55.811Z,18.10
2022-08-26T19:41:37.276Z,17.60
2022-08-26T19:44:08.921Z,18.80
2022-08-26T19:49:12.107Z,16.08
2022-08-26T19:51:40.478Z,20.77
2022-08-26T19:54:08.795Z,19.85
2022-08-26T19:56:37.089Z,19.42
2022-08-26T19:59:05.408Z,20.52
2022-08-26T20:01:33.786Z,18.27
2022-08-26T20:04:04.163Z,22.20
2022-08-26T20:09:00.574Z,23.08
2022-08-26T20:11:29.410Z,18.58
2022-08-26T20:13:57.735Z,16.60
2022-08-26T20:16:26.074Z,16.85
2022-08-26T20:19:11.141Z,21.35
2022-08-26T20:21:42.553Z,23.63
2022-08-26T20:24:12.651Z,19.50
2022-08-26T20:26:42.748Z,20.10
2022-08-26T20:29:12.587Z,18.08
2022-08-26T20:31:41.013Z,18.55
2022-08-26T20:34:09.296Z,22.40
2022-08-26T20:36:40.283Z,15.30
2022-08-26T20:39:08.905Z,17.40
2022-08-26T20:41:37.350Z,20.45
2022-08-26T20:44:06.178Z,21.48
2022-08-26T20:46:36.119Z,17.05
2022-08-26T20:49:05.978Z,17.67
2022-08-26T20:51:37.229Z,26.00
2022-08-26T20:54:07.948Z,15.95
2022-08-26T20:56:36.529Z,18.73
2022-08-26T20:59:06.806Z,21.77
2022-08-26T21:04:06.455Z,18.83
2022-08-26T21:06:35.037Z,22.67
2022-08-26T21:09:04.439Z,23.63
2022-08-26T21:11:34.546Z,22.40
2022-08-26T21:14:06.990Z,22.05
2022-08-26T21:16:45.211Z,28.05
2022-08-26T21:19:15.314Z,29.55
2022-08-26T21:21:44.463Z,25.90
2022-08-26T21:26:43.745Z,24.88
2022-08-26T21:29:13.537Z,21.42
2022-08-26T21:31:46.006Z,28.83
2022-08-26T21:34:15.337Z,24.42
2022-08-26T21:36:43.629Z,28.50
2022-08-26T21:39:12.414Z,29.95
2022-08-26T21:41:41.165Z,26.17
2022-08-26T21:44:11.495Z,27.75
2022-08-26T21:49:09.926Z,30.00
2022-08-26T21:54:11.083Z,27.33
2022-08-26T21:56:41.009Z,21.88
2022-08-26T21:59:11.091Z,24.02
2022-08-26T22:01:39.415Z,27.63
2022-08-26T22:04:08.999Z,27.80
2022-08-26T22:06:42.244Z,22.60
2022-08-26T22:09:10.926Z,21.15
2022-08-26T22:11:39.537Z,22.80
2022-08-26T22:14:08.053Z,20.27
2022-08-26T22:16:37.836Z,21.08
2022-08-26T22:19:06.516Z,24.50
2022-08-26T22:21:35.713Z,20.27
2022-08-26T22:24:06.083Z,20.58
2022-08-26T22:29:03.579Z,15.82
2022-08-26T22:31:37.585Z,19.13
2022-08-26T22:34:10.152Z,21.63
2022-08-26T22:36:42.963Z,21.58
2022-08-26T22:39:13.155Z,19.63
2022-08-26T22:41:42.044Z,15.82
2022-08-26T22:44:11.622Z,21.27
2022-08-26T22:46:40.810Z,17.43
2022-08-26T22:49:12.549Z,13.80
2022-08-26T22:51:40.769Z,15.00
2022-08-26T22:54:09.060Z,14.40
2022-08-26T22:56:38.047Z,17.25
2022-08-26T22:59:07.871Z,14.27
2022-08-26T23:01:37.216Z,13.98
2022-08-26T23:04:07.491Z,20.23
2022-08-26T23:06:38.088Z,18.05
2022-08-26T23:09:07.195Z,14.90
2022-08-26T23:11:36.066Z,15.50
2022-08-26T23:14:06.113Z,19.08
2022-08-26T23:16:41.531Z,14.00
2022-08-26T23:19:11.546Z,16.77
2022-08-26T23:21:41.873Z,17.00
2022-08-26T23:26:38.894Z,14.20
2022-08-26T23:29:08.867Z,15.40
2022-08-26T23:31:37.935Z,17.20
2022-08-26T23:34:23.743Z,18.85
2022-08-26T23:36:53.802Z,23.60
2022-08-26T23:39:22.180Z,27.55
2022-08-26T23:41:50.432Z,25.08
2022-08-26T23:44:19.798Z,25.13
2022-08-26T23:46:48.210Z,16.75
2022-08-26T23:49:16.557Z,20.63
2022-08-26T23:52:02.342Z,20.45
2022-08-26T23:54:33.415Z,23.63
2022-08-26T23:57:01.769Z,20.25
2022-08-26T23:59:30.100Z,19.80
